Home > Products > Valid Products > TAF

000
FTUS44 KLCH 261506 AAA
TAFARA
TAF AMD
KARA 261506Z 2615/2712 18009KT P6SM SCT025 SCT035
      TEMPO 2615/2619 BKN025 BKN035
     FM261900 16010KT P6SM VCSH SCT018 BKN025 BKN050
     FM270100 16005KT P6SM BKN025=



000
FTUS44 KLCH 261501 AAB
TAFLCH
TAF AMD
KLCH 261501Z 2615/2712 15014G22KT P6SM SCT018 SCT025
      TEMPO 2615/2619 BKN018 BKN025
     FM261900 17014G22KT P6SM VCTS SCT025 BKN050CB
     FM270200 16010KT P6SM SCT015 BKN025=



000
FTUS44 KLCH 261123
TAFAEX
TAF
KAEX 261123Z 2612/2712 15005KT P6SM SCT014 SCT030
      TEMPO 2612/2614 4SM BR
     FM261400 17008KT P6SM BKN025 BKN035
     FM261900 17010KT P6SM VCTS SCT025 BKN035CB
     FM270100 18005KT P6SM BKN025=



000
FTUS44 KLCH 261123
TAFLCH
TAF
KLCH 261123Z 2612/2712 16006KT P6SM SKC
     FM261900 17012G18KT P6SM VCTS SCT022 BKN050CB
     FM270200 16010KT P6SM SCT015 BKN025=



000
FTUS44 KLCH 261123
TAFLFT
TAF
KLFT 261123Z 2612/2712 00000KT P6SM BKN013 BKN020
      TEMPO 2612/2614 4SM BR
     FM261400 16010KT P6SM VCSH SCT018 BKN025 BKN050
     FM270100 16005KT P6SM BKN025=



000
FTUS44 KLCH 261123
TAFBPT
TAF
KBPT 261123Z 2612/2712 15007KT P6SM VCSH FEW027 BKN035
     FM261900 17012G18KT P6SM VCTS SCT022 BKN050CB
     FM270200 16010KT P6SM SCT015 BKN025=



000
FTUS44 KLCH 261123
TAFARA
TAF
KARA 261123Z 2612/2712 13003KT P6SM SKC
      TEMPO 2612/2614 4SM BR
     FM261400 16010KT P6SM VCSH SCT018 BKN025 BKN050
     FM270100 16005KT P6SM BKN025=



000
FTUS44 KLCH 260816 AAA
TAFAEX
TAF AMD
KAEX 260816Z 2608/2706 13006KT P6SM SCT025 SCT070
      TEMPO 2608/2612 BKN017
     FM261400 17008KT P6SM VCSH BKN025 BKN035
     FM261800 16009G14KT P6SM TSRA SCT025 BKN035CB
      TEMPO 2619/2623 P6SM -TSRA BKN050CB=



000
FTUS44 KLCH 260604 AAA
TAFLFT
TAF AMD
KLFT 260604Z 2606/2706 16005KT P6SM BKN015 BKN021 OVC030
     FM261400 18010KT P6SM FEW018 BKN030 BKN110
      TEMPO 2618/2622 P6SM -TSRA BKN025CB
     FM262200 17012KT P6SM OVC028
      TEMPO 2622/2701 P6SM -TSRA BKN035CB=



000
FTUS44 KLCH 260438 AAC
TAFLCH
TAF AMD
KLCH 260438Z 2605/2624 16007G15KT P6SM FEW014 SCT030
      TEMPO 2610/2614 OVC008
     FM261500 17010KT P6SM VCSH BKN025
     FM261800 18011G16KT P6SM VCTS BKN025CB=



000
FTUS44 KLCH 260157 AAA
TAFBPT
TAF AMD
KBPT 260157Z 2602/2624 15011KT P6SM BKN017 BKN045
     FM260600 16007KT P6SM BKN025
      TEMPO 2610/2614 OVC008
     FM261500 17012G18KT P6SM VCSH BKN025
     FM261900 16012G18KT P6SM TSRA SCT022 OVC030CB=



000
FTUS44 KLCH 251720
TAFAEX
TAF
KAEX 251720Z 2518/2618 18011G19KT P6SM SCT025 BKN035
      TEMPO 2518/2522 BKN025 BKN035
     FM260100 17008KT P6SM SCT040
     FM260600 16005KT P6SM BKN025
      TEMPO 2610/2614 OVC008
     FM261500 17008KT P6SM VCSH BKN025=



000
FTUS44 KLCH 251720
TAFARA
TAF
KARA 251720Z 2518/2618 17014G22KT P6SM SCT025 BKN035
      TEMPO 2518/2522 BKN025 BKN035
     FM260100 17010KT P6SM SCT035
     FM260600 16008KT P6SM BKN025
      TEMPO 2610/2614 OVC008
     FM261500 17010KT P6SM BKN025=



000
FTUS44 KLCH 251720
TAFLFT
TAF
KLFT 251720Z 2518/2618 19011G19KT P6SM SCT025 BKN035
      TEMPO 2518/2522 BKN025 BKN035
     FM260100 17008KT P6SM SCT035
     FM260600 16006KT P6SM BKN025
      TEMPO 2610/2614 OVC008
     FM261500 17008KT P6SM BKN025=



000
FTUS44 KLCH 251720
TAFLCH
TAF
KLCH 251720Z 2518/2618 17014G22KT P6SM SCT025 BKN035
      TEMPO 2518/2522 BKN025 BKN035
     FM260100 17010KT P6SM SCT035
     FM260600 16008KT P6SM BKN025
      TEMPO 2610/2614 OVC008
     FM261500 17010KT P6SM VCSH BKN025=



000
FTUS44 KLCH 251720
TAFBPT
TAF
KBPT 251720Z 2518/2618 16015G23KT P6SM SCT025 BKN035
      TEMPO 2518/2522 BKN025 BKN035
     FM260100 17012KT P6SM SCT035
     FM260600 16010KT P6SM BKN025
      TEMPO 2610/2614 OVC008
     FM261500 17012G20KT P6SM VCSH BKN025=



000
FTUS44 KLCH 251418 AAB
TAFLFT
TAF AMD
KLFT 251418Z 2514/2612 18007KT P6SM BKN015 OVC025
      TEMPO 2514/2518 SCT025 BKN035
     FM251800 19010G18KT P6SM SCT025 BKN035
     FM260000 18006KT P6SM SCT250
     FM260600 VRB03KT P6SM BKN015=



000
FTUS44 KLCH 251318 AAA
TAFLFT
TAF AMD
KLFT 251318Z 2513/2612 15003KT P6SM BKN005 OVC015
      TEMPO 2513/2517 SCT015 BKN025
     FM251700 19010G17KT P6SM SCT025 BKN035
     FM260000 18006KT P6SM SCT250
     FM260600 VRB03KT P6SM BKN015=



000
FTUS44 KLCH 251156 AAA
TAFBPT
TAF AMD
KBPT 251156Z 2512/2612 16009KT P6SM SCT025 BKN035
      TEMPO 2512/2515 BKN025
     FM251500 16015G22KT P6SM BKN035
     FM260100 15010KT P6SM BKN025=



000
FTUS44 KLCH 251120
TAFLFT
TAF
KLFT 251120Z 2512/2612 VRB05KT P6SM SCT009 BKN015
     FM251500 17009KT P6SM SCT015 BKN025
     FM251800 19010G17KT P6SM SCT025 BKN035
     FM260000 18006KT P6SM SCT250
     FM260600 VRB03KT P6SM BKN015=



000
FTUS44 KLCH 251120
TAFAEX
TAF
KAEX 251120Z 2512/2612 15005KT P6SM BKN025
      TEMPO 2512/2515 BKN015
     FM251500 17010KT P6SM BKN035
     FM260100 15008KT P6SM SCT250
     FM260700 15005KT P6SM BKN015=



000
FTUS44 KLCH 251120
TAFBPT
TAF
KBPT 251120Z 2512/2612 16009KT P6SM SCT015
      TEMPO 2512/2515 BKN015
     FM251500 16015G22KT P6SM BKN025
     FM260100 15010KT P6SM BKN025=



000
FTUS44 KLCH 251120
TAFARA
TAF
KARA 251120Z 2512/2612 VRB05KT P6SM SCT009 BKN015
     FM251500 16012KT P6SM SCT015 BKN025
     FM251800 17014G20KT P6SM SCT025 BKN035
     FM260000 15008KT P6SM SCT250
     FM260600 VRB03KT P6SM BKN015=



000
FTUS44 KLCH 251120
TAFLCH
TAF
KLCH 251120Z 2512/2612 16007KT P6SM SCT015 BKN035
      TEMPO 2512/2515 BKN015
     FM251500 17012G18KT P6SM BKN035
     FM260100 15007KT P6SM BKN025=



000
FTUS44 KLCH 250910 AAA
TAFLFT
TAF AMD
KLFT 250910Z 2509/2606 15003KT P6SM SCT006 BKN012
     FM251400 17008KT P6SM SCT015 BKN025
     FM251600 18011G17KT P6SM SCT025 BKN035
     FM260000 18006KT P6SM SCT040=



000
FTUS44 KLCH 250909 AAA
TAFLCH
TAF AMD
KLCH 250909Z 2509/2606 14007KT P6SM BKN015
     FM251300 15010KT P6SM SCT015 BKN025
     FM251600 17013G20KT P6SM SCT025 BKN035
     FM260000 16010KT P6SM SCT025 SCT040=



000
FTUS44 KLCH 242320
TAFBPT
TAF
KBPT 242320Z 2500/2524 14012KT P6SM SCT025 BKN045
      TEMPO 2500/2502 BKN025
     FM251300 16013G20KT P6SM SCT015 BKN025
     FM251700 17015G22KT P6SM SCT025 BKN035=



000
FTUS44 KLCH 242320
TAFLFT
TAF
KLFT 242320Z 2500/2524 17006KT P6SM SCT040
     FM251200 13004KT P6SM FEW015 SCT025
     FM251400 15008KT P6SM SCT015 BKN025
     FM251600 18011G17KT P6SM SCT025 BKN035=



000
FTUS44 KLCH 242320
TAFLCH
TAF
KLCH 242320Z 2500/2524 15008KT P6SM FEW025 SCT035
     FM251100 13005KT P6SM FEW012 SCT025
     FM251300 15010KT P6SM SCT015 BKN025
     FM251600 17013G20KT P6SM SCT025 BKN035=



000
FTUS44 KLCH 242320
TAFAEX
TAF
KAEX 242320Z 2500/2524 15007KT P6SM FEW050
      TEMPO 2508/2512 4SM BR
     FM251200 14008KT P6SM BKN025
     FM251600 17012G18KT P6SM SCT025 BKN035=



000
FTUS44 KLCH 242320
TAFARA
TAF
KARA 242320Z 2500/2524 17009KT P6SM SCT040
     FM251200 13006KT P6SM FEW015 SCT025
     FM251400 15012G19KT P6SM SCT015 BKN025
     FM251600 18014G21KT P6SM SCT025 BKN035=



000
FTUS44 KLCH 241720
TAFAEX
TAF
KAEX 241720Z 2418/2518 16010KT P6SM FEW025 SCT035
      TEMPO 2418/2422 BKN025 OVC035
     FM250100 16006KT P6SM SCT015 SCT250
      TEMPO 2510/2514 BKN008 OVC015
     FM251500 16010KT P6SM BKN025=



000
FTUS44 KLCH 241720
TAFBPT
TAF
KBPT 241720Z 2418/2518 15015G23KT P6SM SCT018 BKN025
      TEMPO 2420/2424 SCT025 BKN035
     FM250100 15010KT P6SM BKN015
      TEMPO 2510/2514 BKN008 OVC015
     FM251500 15014G22KT P6SM BKN018=



000
FTUS44 KLCH 241720
TAFLCH
TAF
KLCH 241720Z 2418/2518 15014G22KT P6SM SCT025 BKN035
      TEMPO 2418/2422 BKN025 OVC035
     FM250100 15009KT P6SM SCT025
      TEMPO 2510/2514 BKN008 OVC015
     FM251500 15012G20KT P6SM BKN025=



000
FTUS44 KLCH 241720
TAFLFT
TAF
KLFT 241720Z 2418/2518 15009KT P6SM SCT025 BKN035
      TEMPO 2418/2422 BKN025 OVC035
     FM250100 15005KT P6SM SCT025
      TEMPO 2510/2514 BKN025
     FM251500 15008KT P6SM BKN025=



000
FTUS44 KLCH 241720
TAFARA
TAF
KARA 241720Z 2418/2518 15012G20KT P6SM SCT025 BKN035
      TEMPO 2418/2422 BKN025 OVC035
     FM250100 15008KT P6SM SCT025
      TEMPO 2510/2514 BKN025
     FM251500 15010KT P6SM BKN025=



000
FTUS44 KLCH 241601 AAA
TAFAEX
TAF AMD
KAEX 241601Z 2416/2512 16010KT P6SM SCT025
      TEMPO 2416/2420 BKN025
     FM250100 16006KT P6SM SCT015 SCT250
      TEMPO 2510/2512 BKN008 OVC015=



    US Dept of Commerce
    National Oceanic and Atmospheric Administration
    National Weather Service
    1325 East West Highway
    Silver Spring, MD 20910
    Page Author: NWS Internet Services Team
Disclaimer
Information Quality
Credits
Glossary
Privacy Policy
Freedom of Information Act (FOIA)
About Us
Career Opportunities